Time;durP1;ratioP1;P1;durP2;ratioP2;P2;SDS_P1;SDS_P2;PMS_P1;PMS_P2;Temp;Humidity;BMP_temperature;BMP_pressure;BME280_temperature;BME280_humidity;BME280_pressure;Samples;Min_cycle;Max_cycle;Signal;HPM_P1;HPM_P2
2022/03/23 00:01:57;;;;;;;;;49.00;40.00;;;;;;;;2;261077551;261077551;-82
2022/03/23 00:10:57;;;;;;;;;52.00;41.50;;;;;;;;2;261077097;261077097;-82
2022/03/23 00:19:12;;;;;;;;;49.50;33.50;;;;;;;;2;261078281;261078281;-82
2022/03/23 00:28:13;;;;;;;;;44.00;34.50;;;;;;;;2;261077634;261077634;-82
2022/03/23 00:36:29;;;;;;;;;44.00;30.50;;;;;;;;2;261074752;261074752;-82
2022/03/23 00:45:29;;;;;;;;;44.50;27.50;;;;;;;;2;261074356;261074356;-82
2022/03/23 00:53:47;;;;;;;;;40.50;36.50;;;;;;;;2;261069724;261069724;-81
2022/03/23 01:02:47;;;;;;;;;36.50;33.50;;;;;;;;2;261069259;261069259;-82
2022/03/23 01:11:02;;;;;;;;;50.50;31.00;;;;;;;;2;261075201;261075201;-82
2022/03/23 01:20:08;;;;;;;;;23.50;18.50;;;;;;;;2;261075947;261075947;-82
2022/03/23 01:28:23;;;;;;;;;43.00;27.50;;;;;;;;2;261076050;261076050;-82
2022/03/23 01:37:24;;;;;;;;;23.00;23.00;;;;;;;;2;261077431;261077431;-82
2022/03/23 01:45:39;;;;;;;;;38.00;32.50;;;;;;;;2;261074477;261074477;-81
2022/03/23 01:54:40;;;;;;;;;28.50;28.00;;;;;;;;2;261076488;261076488;-81
2022/03/23 02:02:57;;;;;;;;;41.50;37.00;;;;;;;;2;261077875;261077875;-81
2022/03/23 02:12:01;;;;;;;;;56.00;20.00;;;;;;;;2;261076498;261076498;-81
2022/03/23 02:20:16;;;;;;;;;38.50;26.50;;;;;;;;2;261076060;261076060;-81
2022/03/23 02:29:18;;;;;;;;;32.50;27.50;;;;;;;;2;261077364;261077364;-81
2022/03/23 02:37:35;;;;;;;;;26.50;26.50;;;;;;;;2;261078438;261078438;-81
2022/03/23 02:46:35;;;;;;;;;33.50;29.50;;;;;;;;2;261073276;261073276;-81
2022/03/23 03:04:10;;;;;;;;;27.00;23.50;;;;;;;;2;261077165;261077165;-81
2022/03/23 03:12:26;;;;;;;;;35.50;30.50;;;;;;;;2;261076815;261076815;-81
2022/03/23 03:21:27;;;;;;;;;26.50;26.50;;;;;;;;2;261075254;261075254;-81
2022/03/23 03:29:43;;;;;;;;;32.00;20.50;;;;;;;;2;261078178;261078178;-81
2022/03/23 03:38:44;;;;;;;;;25.00;20.00;;;;;;;;2;261076517;261076517;-81
2022/03/23 03:46:59;;;;;;;;;46.00;32.50;;;;;;;;2;261074847;261074847;-81
2022/03/23 03:56:00;;;;;;;;;52.00;29.50;;;;;;;;2;261077263;261077263;-81
2022/03/23 04:04:15;;;;;;;;;24.50;24.50;;;;;;;;2;261079562;261079562;-81
2022/03/23 04:13:15;;;;;;;;;51.00;27.00;;;;;;;;2;261076497;261076497;-81
2022/03/23 04:21:31;;;;;;;;;31.50;16.50;;;;;;;;2;261076723;261076723;-81
2022/03/23 04:30:32;;;;;;;;;35.00;23.00;;;;;;;;2;261078432;261078432;-81
2022/03/23 04:38:47;;;;;;;;;23.00;20.00;;;;;;;;2;261074536;261074536;-81
2022/03/23 04:47:48;;;;;;;;;25.50;25.50;;;;;;;;2;261078902;261078902;-81
2022/03/23 04:56:03;;;;;;;;;18.00;14.00;;;;;;;;2;261076726;261076726;-81
2022/03/23 05:05:05;;;;;;;;;27.50;23.00;;;;;;;;2;261075745;261075745;-81
2022/03/23 05:13:20;;;;;;;;;23.00;14.00;;;;;;;;2;261073367;261073367;-81
2022/03/23 05:22:21;;;;;;;;;22.00;22.00;;;;;;;;2;261078062;261078062;-81
2022/03/23 05:30:37;;;;;;;;;16.50;16.50;;;;;;;;2;261078007;261078007;-81
2022/03/23 05:39:38;;;;;;;;;28.50;28.50;;;;;;;;2;261077566;261077566;-80
2022/03/23 05:47:53;;;;;;;;;26.00;22.00;;;;;;;;2;261076681;261076681;-81
2022/03/23 05:56:54;;;;;;;;;22.00;22.00;;;;;;;;2;261073592;261073592;-81
2022/03/23 06:05:10;;;;;;;;;26.00;22.00;;;;;;;;2;261078831;261078831;-82
2022/03/23 06:14:13;;;;;;;;;19.00;17.50;;;;;;;;2;261083873;261083873;-82
2022/03/23 06:22:28;;;;;;;;;28.00;28.00;;;;;;;;2;261079543;261079543;-81
2022/03/23 06:31:29;;;;;;;;;16.50;13.50;;;;;;;;2;261076782;261076782;-82
2022/03/23 06:39:44;;;;;;;;;20.00;20.00;;;;;;;;2;261078372;261078372;-81
2022/03/23 06:48:47;;;;;;;;;40.50;35.00;;;;;;;;2;261078793;261078793;-79
2022/03/23 06:57:02;;;;;;;;;23.00;19.00;;;;;;;;2;261079296;261079296;-81
2022/03/23 07:06:03;;;;;;;;;23.00;23.00;;;;;;;;2;261077176;261077176;-81
2022/03/23 07:14:18;;;;;;;;;25.00;25.00;;;;;;;;2;261076439;261076439;-79
2022/03/23 07:23:18;;;;;;;;;30.00;29.00;;;;;;;;2;261075339;261075339;-81
2022/03/23 07:31:34;;;;;;;;;25.50;25.50;;;;;;;;2;261077358;261077358;-81
2022/03/23 07:40:36;;;;;;;;;47.50;29.00;;;;;;;;2;261074944;261074944;-80
2022/03/23 07:48:51;;;;;;;;;23.00;23.00;;;;;;;;2;261072575;261072575;-80
2022/03/23 07:57:51;;;;;;;;;45.00;31.00;;;;;;;;2;261077269;261077269;-80
2022/03/23 08:06:07;;;;;;;;;34.00;27.00;;;;;;;;2;261078378;261078378;-81
2022/03/23 08:15:08;;;;;;;;;34.00;29.50;;;;;;;;2;261080280;261080280;-82
2022/03/23 08:23:25;;;;;;;;;34.50;28.50;;;;;;;;2;261076144;261076144;-81
2022/03/23 08:32:26;;;;;;;;;42.50;26.00;;;;;;;;2;261078419;261078419;-81
2022/03/23 08:40:41;;;;;;;;;31.50;24.50;;;;;;;;2;261078129;261078129;-81
2022/03/23 08:49:42;;;;;;;;;24.50;24.50;;;;;;;;2;261076610;261076610;-82
2022/03/23 08:57:57;;;;;;;;;40.50;28.50;;;;;;;;2;261077343;261077343;-82
2022/03/23 09:06:58;;;;;;;;;23.00;23.00;;;;;;;;2;261077347;261077347;-82
2022/03/23 09:15:14;;;;;;;;;21.50;21.50;;;;;;;;2;261076768;261076768;-82
2022/03/23 09:24:15;;;;;;;;;28.50;19.50;;;;;;;;2;261077977;261077977;-82
2022/03/23 09:32:31;;;;;;;;;50.00;29.00;;;;;;;;2;261076934;261076934;-83
2022/03/23 09:41:32;;;;;;;;;22.50;22.50;;;;;;;;2;261073929;261073929;-80
2022/03/23 09:49:48;;;;;;;;;22.00;22.00;;;;;;;;2;261076644;261076644;-81
2022/03/23 09:58:48;;;;;;;;;24.00;19.50;;;;;;;;2;261078387;261078387;-82
2022/03/23 10:07:06;;;;;;;;;15.00;15.00;;;;;;;;2;261076742;261076742;-83
2022/03/23 10:16:19;;;;;;;;;33.00;21.50;;;;;;;;2;261077321;261077321;-83
2022/03/23 10:24:35;;;;;;;;;27.00;26.50;;;;;;;;2;261077320;261077320;-83
2022/03/23 10:33:35;;;;;;;;;27.50;16.50;;;;;;;;2;261077071;261077071;-83
2022/03/23 10:41:58;;;;;;;;;7.50;5.00;;;;;;;;2;261074402;261074402;-83
2022/03/23 10:51:00;;;;;;;;;16.00;14.00;;;;;;;;2;261075297;261075297;-83
2022/03/23 10:59:15;;;;;;;;;15.50;15.50;;;;;;;;2;261076580;261076580;-82
2022/03/23 11:08:23;;;;;;;;;14.00;14.00;;;;;;;;2;261086892;261086892;-83
2022/03/23 11:16:42;;;;;;;;;21.00;21.00;;;;;;;;2;261080275;261080275;-84
2022/03/23 11:25:43;;;;;;;;;41.50;28.00;;;;;;;;2;261081467;261081467;-83
2022/03/23 11:33:59;;;;;;;;;19.00;17.50;;;;;;;;2;261075074;261075074;-82
2022/03/23 11:42:59;;;;;;;;;17.50;16.00;;;;;;;;2;261080411;261080411;-83
2022/03/23 11:51:34;;;;;;;;;18.00;18.00;;;;;;;;2;261081492;261081492;-83
2022/03/23 12:00:38;;;;;;;;;41.00;21.00;;;;;;;;2;261079539;261079539;-83
2022/03/23 12:08:57;;;;;;;;;24.50;24.50;;;;;;;;2;261081053;261081053;-83
2022/03/23 12:17:58;;;;;;;;;11.00;11.00;;;;;;;;2;261079285;261079285;-83
2022/03/23 12:26:24;;;;;;;;;29.50;18.00;;;;;;;;2;261079328;261079328;-81
2022/03/23 12:35:29;;;;;;;;;27.50;18.50;;;;;;;;2;261075864;261075864;-93
2022/03/23 12:43:46;;;;;;;;;34.50;23.50;;;;;;;;2;261077371;261077371;-90
2022/03/23 13:01:32;;;;;;;;;27.00;13.00;;;;;;;;2;261080511;261080511;-90
2022/03/23 13:10:33;;;;;;;;;25.00;25.00;;;;;;;;2;261073758;261073758;-87
2022/03/23 13:18:49;;;;;;;;;18.50;18.50;;;;;;;;2;261076328;261076328;-85
2022/03/23 13:27:50;;;;;;;;;16.50;16.50;;;;;;;;2;261076622;261076622;-87
2022/03/23 13:36:07;;;;;;;;;11.00;11.00;;;;;;;;2;261075571;261075571;-89
2022/03/23 13:45:09;;;;;;;;;19.00;15.50;;;;;;;;2;261075451;261075451;-88
2022/03/23 13:53:25;;;;;;;;;19.50;19.50;;;;;;;;2;261079081;261079081;-91
2022/03/23 14:02:25;;;;;;;;;37.50;26.00;;;;;;;;2;261079004;261079004;-87
2022/03/23 14:10:41;;;;;;;;;25.00;25.00;;;;;;;;2;261079209;261079209;-84
2022/03/23 14:19:42;;;;;;;;;27.50;27.50;;;;;;;;2;261075680;261075680;-86
2022/03/23 14:27:58;;;;;;;;;26.50;26.50;;;;;;;;2;261080297;261080297;-84
2022/03/23 14:37:09;;;;;;;;;33.00;21.00;;;;;;;;2;261077943;261077943;-89
2022/03/23 14:45:31;;;;;;;;;23.50;23.50;;;;;;;;2;261076605;261076605;-82
2022/03/23 14:54:32;;;;;;;;;29.50;29.00;;;;;;;;2;261077971;261077971;-87
2022/03/23 15:02:47;;;;;;;;;12.50;12.50;;;;;;;;2;261076561;261076561;-82
2022/03/23 15:20:22;;;;;;;;;14.00;14.00;;;;;;;;2;261077481;261077481;-83
2022/03/23 15:29:23;;;;;;;;;18.00;18.00;;;;;;;;2;261079164;261079164;-84
2022/03/23 15:37:40;;;;;;;;;19.00;19.00;;;;;;;;2;261077455;261077455;-84
2022/03/23 15:46:41;;;;;;;;;11.00;9.50;;;;;;;;2;261080455;261080455;-84
2022/03/23 15:54:57;;;;;;;;;26.00;23.00;;;;;;;;2;261080095;261080095;-83
2022/03/23 16:03:59;;;;;;;;;17.00;17.00;;;;;;;;2;261081110;261081110;-82
2022/03/23 16:12:15;;;;;;;;;24.00;20.50;;;;;;;;2;261078795;261078795;-83
2022/03/23 16:21:15;;;;;;;;;23.00;23.00;;;;;;;;2;261081304;261081304;-83
2022/03/23 16:29:31;;;;;;;;;15.00;15.00;;;;;;;;2;261077798;261077798;-84
2022/03/23 16:38:31;;;;;;;;;15.00;15.00;;;;;;;;2;261076448;261076448;-83
2022/03/23 16:46:47;;;;;;;;;31.50;14.00;;;;;;;;2;261077775;261077775;-83
2022/03/23 16:55:48;;;;;;;;;17.00;17.00;;;;;;;;2;261080991;261080991;-83
2022/03/23 17:13:23;;;;;;;;;18.50;14.00;;;;;;;;2;261077872;261077872;-82
2022/03/23 17:21:38;;;;;;;;;12.50;12.50;;;;;;;;2;261076787;261076787;-82
2022/03/23 17:30:39;;;;;;;;;28.50;16.50;;;;;;;;2;261076808;261076808;-82
2022/03/23 17:38:55;;;;;;;;;16.00;16.00;;;;;;;;2;261076352;261076352;-82
2022/03/23 17:47:55;;;;;;;;;31.00;30.00;;;;;;;;2;261075309;261075309;-83
2022/03/23 17:56:11;;;;;;;;;37.50;24.00;;;;;;;;2;261078249;261078249;-82
2022/03/23 18:05:12;;;;;;;;;29.00;25.50;;;;;;;;2;261084606;261084606;-82
2022/03/23 18:13:27;;;;;;;;;25.00;24.50;;;;;;;;2;261080088;261080088;-83
2022/03/23 18:22:28;;;;;;;;;43.00;30.00;;;;;;;;2;261077024;261077024;-87
2022/03/23 18:30:47;;;;;;;;;32.50;30.50;;;;;;;;2;261079643;261079643;-84
2022/03/23 18:39:48;;;;;;;;;54.00;33.00;;;;;;;;2;261082171;261082171;-85
2022/03/23 18:48:04;;;;;;;;;46.00;32.00;;;;;;;;2;261079815;261079815;-83
2022/03/23 18:57:06;;;;;;;;;54.50;32.50;;;;;;;;2;261076628;261076628;-84
2022/03/23 19:05:22;;;;;;;;;33.00;30.50;;;;;;;;2;261078185;261078185;-82
2022/03/23 19:14:23;;;;;;;;;43.00;36.00;;;;;;;;2;261077073;261077073;-83
2022/03/23 19:22:38;;;;;;;;;37.50;34.00;;;;;;;;2;261079963;261079963;-83
2022/03/23 19:31:38;;;;;;;;;35.00;33.00;;;;;;;;2;261077616;261077616;-83
2022/03/23 19:39:54;;;;;;;;;37.50;30.50;;;;;;;;2;261078903;261078903;-84
2022/03/23 19:48:55;;;;;;;;;43.00;37.50;;;;;;;;2;261076790;261076790;-83
2022/03/23 19:57:10;;;;;;;;;64.50;28.00;;;;;;;;2;261077359;261077359;-83
2022/03/23 20:06:11;;;;;;;;;33.50;32.00;;;;;;;;2;261080081;261080081;-84
2022/03/23 20:14:26;;;;;;;;;37.50;32.50;;;;;;;;2;261079022;261079022;-83
2022/03/23 20:23:27;;;;;;;;;26.00;22.50;;;;;;;;2;261083401;261083401;-82
2022/03/23 20:31:42;;;;;;;;;36.50;34.00;;;;;;;;2;261079800;261079800;-82
2022/03/23 20:40:43;;;;;;;;;45.00;39.00;;;;;;;;2;261081837;261081837;-83
2022/03/23 20:49:04;;;;;;;;;51.00;42.00;;;;;;;;2;261078391;261078391;-83
2022/03/23 20:58:04;;;;;;;;;44.50;34.00;;;;;;;;2;261073432;261073432;-83
2022/03/23 21:06:24;;;;;;;;;59.50;39.50;;;;;;;;2;261077899;261077899;-83
2022/03/23 21:15:25;;;;;;;;;52.50;39.00;;;;;;;;2;261077450;261077450;-84
2022/03/23 21:23:41;;;;;;;;;62.50;43.00;;;;;;;;2;261082120;261082120;-83
2022/03/23 21:32:43;;;;;;;;;51.50;38.00;;;;;;;;2;261079558;261079558;-83
2022/03/23 21:40:58;;;;;;;;;53.50;35.50;;;;;;;;2;261081826;261081826;-84
2022/03/23 21:49:58;;;;;;;;;52.00;36.50;;;;;;;;2;261082064;261082064;-85
2022/03/23 21:58:14;;;;;;;;;45.00;34.50;;;;;;;;2;261081648;261081648;-84
2022/03/23 22:10:33;;;;;;;;;47.50;40.00;;;;;;;;2;261082615;261082615;-84
2022/03/23 22:18:49;;;;;;;;;48.00;35.00;;;;;;;;2;261078773;261078773;-85
2022/03/23 22:27:49;;;;;;;;;30.50;29.00;;;;;;;;2;261081212;261081212;-84
2022/03/23 22:36:06;;;;;;;;;29.50;28.50;;;;;;;;2;261080882;261080882;-84
2022/03/23 22:45:08;;;;;;;;;39.00;31.50;;;;;;;;2;261078674;261078674;-84
2022/03/23 22:53:23;;;;;;;;;50.50;37.00;;;;;;;;2;261078395;261078395;-83
2022/03/23 23:02:23;;;;;;;;;33.00;24.50;;;;;;;;2;261076399;261076399;-83
2022/03/23 23:10:39;;;;;;;;;46.50;33.00;;;;;;;;2;261076185;261076185;-83
2022/03/23 23:19:40;;;;;;;;;32.00;30.00;;;;;;;;2;261080991;261080991;-83
2022/03/23 23:28:02;;;;;;;;;38.00;34.50;;;;;;;;2;261076678;261076678;-84
2022/03/23 23:37:02;;;;;;;;;42.50;30.00;;;;;;;;2;261079147;261079147;-84
2022/03/23 23:45:18;;;;;;;;;30.50;29.50;;;;;;;;2;261074251;261074251;-84
2022/03/23 23:54:18;;;;;;;;;32.50;31.00;;;;;;;;2;261076175;261076175;-84
